JTA86 ROIG-RJBB
Flight info
| Callsign | JTA86 |
|---|---|
| Flight time | N/A |
| Altitude | 35000 |
| Route | MJC Y62 YURIX Y26 SEPIA B597 SUC Y53 NIXOV |
| Aircraft | B738/M-SDE2E3FGHIRWXY/LB1 |
Departure
| Time | 2026-05-06 04:10 |
|---|---|
| Airport | New Ishigaki Airport (ROIG) |
Arrival
| Time | N/A |
|---|---|
| Airport | Kansai International Airport (RJBB) |
| Time | Latitude | Longitude | Altitude | Speed | Heading |
|---|---|---|---|---|---|
| 2026-05-06 03:58 | 24.39050 | 124.24457 | 115 ft | 0 kts | 126° |
| 2026-05-06 04:02 | 24.39056 | 124.24448 | 112 ft | 2 kts | 126° |
| 2026-05-06 04:02 | 24.39064 | 124.24436 | 112 ft | 2 kts | 126° |
| 2026-05-06 04:02 | 24.39072 | 124.24424 | 114 ft | 2 kts | 126° |
| 2026-05-06 04:03 | 24.39080 | 124.24411 | 116 ft | 2 kts | 126° |
| 2026-05-06 04:03 | 24.39089 | 124.24399 | 115 ft | 2 kts | 126° |
| 2026-05-06 04:03 | 24.39097 | 124.24386 | 113 ft | 2 kts | 126° |
| 2026-05-06 04:03 | 24.39105 | 124.24374 | 114 ft | 2 kts | 127° |
| 2026-05-06 04:04 | 24.39113 | 124.24362 | 114 ft | 2 kts | 128° |
| 2026-05-06 04:04 | 24.39122 | 124.24351 | 114 ft | 2 kts | 135° |
| 2026-05-06 04:04 | 24.39130 | 124.24343 | 114 ft | 2 kts | 156° |
| 2026-05-06 04:04 | 24.39138 | 124.24340 | 115 ft | 1 kts | 195° |
| 2026-05-06 04:05 | 24.39144 | 124.24342 | 114 ft | 1 kts | 209° |
| 2026-05-06 04:05 | 24.39148 | 124.24345 | 115 ft | 1 kts | 214° |
| 2026-05-06 04:05 | 24.39149 | 124.24346 | 115 ft | 0 kts | 214° |
| 2026-05-06 04:07 | 24.39147 | 124.24344 | 114 ft | 1 kts | 216° |
| 2026-05-06 04:07 | 24.39142 | 124.24340 | 116 ft | 1 kts | 216° |
| 2026-05-06 04:08 | 24.39128 | 124.24328 | 119 ft | 6 kts | 216° |
| 2026-05-06 04:08 | 24.39072 | 124.24283 | 117 ft | 14 kts | 215° |
| 2026-05-06 04:08 | 24.38970 | 124.24205 | 118 ft | 22 kts | 216° |
| 2026-05-06 04:08 | 24.38848 | 124.24098 | 125 ft | 22 kts | 241° |
| 2026-05-06 04:09 | 24.38896 | 124.23981 | 132 ft | 17 kts | 307° |
| 2026-05-06 04:09 | 24.38960 | 124.23974 | 133 ft | 4 kts | 35° |
| 2026-05-06 04:09 | 24.38994 | 124.24000 | 131 ft | 26 kts | 35° |
| 2026-05-06 04:09 | 24.39371 | 124.24296 | 118 ft | 105 kts | 36° |
| 2026-05-06 04:10 | 24.40130 | 124.24899 | 280 ft | 152 kts | 37° |
| 2026-05-06 04:10 | 24.41039 | 124.25629 | 853 ft | 169 kts | 40° |
| 2026-05-06 04:10 | 24.41834 | 124.26643 | 1547 ft | 181 kts | 59° |
| 2026-05-06 04:10 | 24.42327 | 124.27919 | 2365 ft | 183 kts | 68° |
| 2026-05-06 04:11 | 24.42778 | 124.29264 | 3030 ft | 197 kts | 69° |
| 2026-05-06 04:11 | 24.43231 | 124.30801 | 3356 ft | 225 kts | 71° |
| 2026-05-06 04:11 | 24.43736 | 124.32535 | 3592 ft | 252 kts | 71° |
| 2026-05-06 04:11 | 24.44322 | 124.34457 | 3938 ft | 276 kts | 70° |
| 2026-05-06 04:12 | 24.44960 | 124.36454 | 4760 ft | 284 kts | 71° |
| 2026-05-06 04:12 | 24.45645 | 124.38520 | 5765 ft | 286 kts | 70° |
| 2026-05-06 04:12 | 24.46344 | 124.40568 | 6552 ft | 294 kts | 70° |
| 2026-05-06 04:12 | 24.47083 | 124.42691 | 7303 ft | 300 kts | 69° |
| 2026-05-06 04:13 | 24.47844 | 124.44844 | 8122 ft | 305 kts | 69° |
| 2026-05-06 04:13 | 24.48626 | 124.47037 | 8937 ft | 312 kts | 69° |
| 2026-05-06 04:13 | 24.49431 | 124.49279 | 9845 ft | 320 kts | 69° |
| 2026-05-06 04:13 | 24.50259 | 124.51579 | 10502 ft | 332 kts | 69° |
| 2026-05-06 04:14 | 24.51143 | 124.54030 | 10818 ft | 355 kts | 69° |
| 2026-05-06 04:14 | 24.52066 | 124.56583 | 11446 ft | 364 kts | 69° |
| 2026-05-06 04:14 | 24.53007 | 124.59182 | 12160 ft | 369 kts | 69° |
| 2026-05-06 04:14 | 24.53962 | 124.61820 | 12859 ft | 374 kts | 69° |
| 2026-05-06 04:15 | 24.54932 | 124.64502 | 13536 ft | 381 kts | 68° |
| 2026-05-06 04:15 | 24.55916 | 124.67223 | 14165 ft | 386 kts | 69° |
| 2026-05-06 04:15 | 24.56908 | 124.69968 | 14840 ft | 389 kts | 69° |
| 2026-05-06 04:15 | 24.57909 | 124.72741 | 15541 ft | 391 kts | 69° |
| 2026-05-06 04:16 | 24.58917 | 124.75534 | 16187 ft | 395 kts | 69° |
| 2026-05-06 04:16 | 24.59931 | 124.78347 | 16829 ft | 399 kts | 69° |
| 2026-05-06 04:16 | 24.60957 | 124.81194 | 17461 ft | 402 kts | 69° |
| 2026-05-06 04:16 | 24.61994 | 124.84073 | 18096 ft | 406 kts | 69° |
| 2026-05-06 04:17 | 24.63034 | 124.86966 | 18657 ft | 410 kts | 69° |
| 2026-05-06 04:17 | 24.64087 | 124.89893 | 19186 ft | 413 kts | 69° |
| 2026-05-06 04:17 | 24.65148 | 124.92847 | 19710 ft | 417 kts | 69° |
| 2026-05-06 04:17 | 24.66218 | 124.95829 | 20248 ft | 421 kts | 69° |
| 2026-05-06 04:18 | 24.67295 | 124.98831 | 20765 ft | 425 kts | 69° |
| 2026-05-06 04:18 | 24.68382 | 125.01865 | 21302 ft | 428 kts | 69° |
| 2026-05-06 04:18 | 24.69478 | 125.04924 | 21823 ft | 432 kts | 69° |
| 2026-05-06 04:18 | 24.70584 | 125.08011 | 22332 ft | 436 kts | 69° |
| 2026-05-06 04:19 | 24.71688 | 125.11128 | 22832 ft | 439 kts | 70° |
| 2026-05-06 04:19 | 24.72752 | 125.14292 | 23321 ft | 443 kts | 71° |
| 2026-05-06 04:19 | 24.73797 | 125.17483 | 23751 ft | 446 kts | 71° |
| 2026-05-06 04:19 | 24.74853 | 125.20706 | 24150 ft | 449 kts | 71° |
| 2026-05-06 04:20 | 24.75909 | 125.23905 | 24555 ft | 452 kts | 71° |
| 2026-05-06 04:20 | 24.77015 | 125.27147 | 24964 ft | 455 kts | 66° |
| 2026-05-06 04:20 | 24.78689 | 125.30112 | 25316 ft | 459 kts | 47° |
| 2026-05-06 04:20 | 24.81032 | 125.32483 | 25736 ft | 458 kts | 37° |
| 2026-05-06 04:21 | 24.83528 | 125.34673 | 26133 ft | 460 kts | 35° |
| 2026-05-06 04:21 | 24.86066 | 125.36842 | 26491 ft | 464 kts | 35° |
| 2026-05-06 04:21 | 24.88619 | 125.39021 | 26855 ft | 467 kts | 35° |
| 2026-05-06 04:21 | 24.91188 | 125.41235 | 27223 ft | 470 kts | 36° |
| 2026-05-06 04:22 | 24.93762 | 125.43479 | 27590 ft | 473 kts | 36° |
| 2026-05-06 04:22 | 24.96344 | 125.45748 | 27955 ft | 476 kts | 36° |
| 2026-05-06 04:22 | 24.98928 | 125.48031 | 28312 ft | 479 kts | 36° |
| 2026-05-06 04:23 | 25.04150 | 125.52662 | 29002 ft | 484 kts | 36° |
| 2026-05-06 04:23 | 25.06782 | 125.54999 | 29345 ft | 487 kts | 36° |
| 2026-05-06 04:23 | 25.09429 | 125.57349 | 29678 ft | 490 kts | 36° |
| 2026-05-06 04:23 | 25.12084 | 125.59706 | 30003 ft | 492 kts | 36° |
| 2026-05-06 04:24 | 25.14759 | 125.62083 | 30287 ft | 495 kts | 36° |
| 2026-05-06 04:24 | 25.17446 | 125.64470 | 30574 ft | 497 kts | 36° |
| 2026-05-06 04:24 | 25.20141 | 125.66867 | 30885 ft | 498 kts | 36° |
| 2026-05-06 04:24 | 25.22828 | 125.69258 | 31270 ft | 496 kts | 36° |
| 2026-05-06 04:25 | 25.25513 | 125.71648 | 31685 ft | 495 kts | 36° |
| 2026-05-06 04:25 | 25.28189 | 125.74033 | 32084 ft | 493 kts | 36° |
| 2026-05-06 04:25 | 25.30861 | 125.76414 | 32438 ft | 493 kts | 36° |
| 2026-05-06 04:25 | 25.33531 | 125.78795 | 32792 ft | 493 kts | 36° |
| 2026-05-06 04:26 | 25.36197 | 125.81174 | 33165 ft | 492 kts | 36° |
| 2026-05-06 04:26 | 25.38848 | 125.83542 | 33534 ft | 491 kts | 36° |
| 2026-05-06 04:26 | 25.41467 | 125.85881 | 33886 ft | 490 kts | 36° |
| 2026-05-06 04:26 | 25.44118 | 125.88249 | 34185 ft | 489 kts | 36° |
| 2026-05-06 04:27 | 25.46763 | 125.90612 | 34429 ft | 490 kts | 36° |
| 2026-05-06 04:27 | 25.49419 | 125.92984 | 34678 ft | 491 kts | 36° |
| 2026-05-06 04:27 | 25.52075 | 125.95356 | 34954 ft | 490 kts | 36° |
| 2026-05-06 04:28 | 25.57415 | 126.00131 | 34999 ft | 495 kts | 36° |
| 2026-05-06 04:28 | 25.62751 | 126.04912 | 34982 ft | 490 kts | 36° |
| 2026-05-06 04:29 | 25.67138 | 126.08848 | 35007 ft | 487 kts | 36° |
| 2026-05-06 04:29 | 25.72410 | 126.13581 | 35008 ft | 487 kts | 36° |
| 2026-05-06 04:30 | 25.77677 | 126.18315 | 34999 ft | 488 kts | 36° |
| 2026-05-06 04:30 | 25.82947 | 126.23056 | 35006 ft | 488 kts | 37° |
| 2026-05-06 04:31 | 25.88225 | 126.27813 | 35006 ft | 489 kts | 36° |
| 2026-05-06 04:31 | 25.93509 | 126.32580 | 35004 ft | 489 kts | 36° |
| 2026-05-06 04:32 | 25.98790 | 126.37350 | 34996 ft | 490 kts | 36° |
| 2026-05-06 04:32 | 26.04065 | 126.42145 | 35006 ft | 489 kts | 37° |
| 2026-05-06 04:33 | 26.09323 | 126.46941 | 35003 ft | 489 kts | 37° |
| 2026-05-06 04:33 | 26.14582 | 126.51737 | 35005 ft | 488 kts | 37° |
| 2026-05-06 04:34 | 26.19843 | 126.56496 | 35003 ft | 487 kts | 36° |
| 2026-05-06 04:34 | 26.25109 | 126.61245 | 35002 ft | 486 kts | 37° |
| 2026-05-06 04:35 | 26.30351 | 126.65987 | 35004 ft | 485 kts | 37° |
| 2026-05-06 04:35 | 26.35589 | 126.70736 | 35002 ft | 485 kts | 37° |
| 2026-05-06 04:36 | 26.40930 | 126.75310 | 35007 ft | 483 kts | 33° |
| 2026-05-06 04:36 | 26.46426 | 126.79605 | 35009 ft | 483 kts | 32° |
| 2026-05-06 04:37 | 26.51947 | 126.83894 | 35003 ft | 484 kts | 32° |
| 2026-05-06 04:37 | 26.57450 | 126.88228 | 35004 ft | 485 kts | 32° |
| 2026-05-06 04:38 | 26.62925 | 126.92576 | 35010 ft | 487 kts | 32° |
| 2026-05-06 04:38 | 26.68451 | 126.96975 | 35013 ft | 488 kts | 32° |
| 2026-05-06 04:39 | 26.73988 | 127.01386 | 35016 ft | 490 kts | 32° |
| 2026-05-06 04:39 | 26.79548 | 127.05819 | 35019 ft | 491 kts | 32° |
| 2026-05-06 04:40 | 26.85115 | 127.10262 | 35019 ft | 492 kts | 32° |
| 2026-05-06 04:40 | 26.90699 | 127.14725 | 35022 ft | 493 kts | 32° |
| 2026-05-06 04:41 | 26.96281 | 127.19193 | 35016 ft | 494 kts | 32° |
| 2026-05-06 04:41 | 27.01872 | 127.23672 | 35017 ft | 493 kts | 32° |
| 2026-05-06 04:42 | 27.07450 | 127.28147 | 35016 ft | 493 kts | 32° |
| 2026-05-06 04:42 | 27.13029 | 127.32629 | 35012 ft | 493 kts | 32° |
| 2026-05-06 04:43 | 27.18593 | 127.37104 | 35015 ft | 492 kts | 32° |
| 2026-05-06 04:43 | 27.24158 | 127.41585 | 35014 ft | 492 kts | 32° |
| 2026-05-06 04:44 | 27.29717 | 127.46067 | 35018 ft | 491 kts | 32° |
| 2026-05-06 04:44 | 27.35266 | 127.50547 | 35020 ft | 491 kts | 32° |
| 2026-05-06 04:45 | 27.40820 | 127.55037 | 35018 ft | 491 kts | 32° |
| 2026-05-06 04:45 | 27.46369 | 127.59528 | 35015 ft | 492 kts | 32° |
| 2026-05-06 04:46 | 27.51582 | 127.64469 | 35023 ft | 496 kts | 43° |
| 2026-05-06 04:46 | 27.56382 | 127.70055 | 35014 ft | 497 kts | 44° |
| 2026-05-06 04:47 | 27.61169 | 127.75694 | 35019 ft | 498 kts | 44° |
| 2026-05-06 04:47 | 27.65990 | 127.81302 | 35016 ft | 499 kts | 43° |
| 2026-05-06 04:48 | 27.70844 | 127.86910 | 35024 ft | 500 kts | 43° |
| 2026-05-06 04:48 | 27.75707 | 127.92525 | 35028 ft | 497 kts | 46° |
| 2026-05-06 04:49 | 27.80455 | 127.98022 | 35006 ft | 484 kts | 46° |
| 2026-05-06 04:49 | 27.85164 | 128.03489 | 35030 ft | 486 kts | 46° |
| 2026-05-06 04:50 | 27.89891 | 128.08981 | 35024 ft | 489 kts | 46° |
| 2026-05-06 04:50 | 27.94643 | 128.14509 | 35021 ft | 491 kts | 46° |
| 2026-05-06 04:51 | 27.99403 | 128.20053 | 35022 ft | 492 kts | 46° |
| 2026-05-06 04:51 | 28.04179 | 128.25623 | 35017 ft | 493 kts | 46° |
| 2026-05-06 04:52 | 28.08924 | 128.31166 | 35020 ft | 493 kts | 46° |
| 2026-05-06 04:52 | 28.13715 | 128.36769 | 35018 ft | 492 kts | 46° |
| 2026-05-06 04:53 | 28.18483 | 128.42353 | 35018 ft | 491 kts | 46° |
| 2026-05-06 04:53 | 28.23225 | 128.47912 | 35020 ft | 490 kts | 46° |
| 2026-05-06 04:54 | 28.27927 | 128.53430 | 35021 ft | 489 kts | 46° |
| 2026-05-06 04:54 | 28.32639 | 128.58970 | 35021 ft | 488 kts | 46° |
| 2026-05-06 04:55 | 28.37344 | 128.64510 | 35021 ft | 486 kts | 46° |
| 2026-05-06 04:55 | 28.42031 | 128.70036 | 35024 ft | 486 kts | 46° |
| 2026-05-06 04:56 | 28.46714 | 128.75565 | 35021 ft | 485 kts | 46° |
| 2026-05-06 04:56 | 28.51382 | 128.81083 | 35023 ft | 484 kts | 46° |
| 2026-05-06 04:57 | 28.56051 | 128.86610 | 35027 ft | 484 kts | 46° |
| 2026-05-06 04:57 | 28.60716 | 128.92141 | 35029 ft | 484 kts | 46° |
| 2026-05-06 04:58 | 28.65378 | 128.97675 | 35033 ft | 485 kts | 46° |
| 2026-05-06 04:58 | 28.70021 | 129.03195 | 35034 ft | 486 kts | 46° |
| 2026-05-06 04:59 | 28.74731 | 129.08802 | 35034 ft | 487 kts | 46° |
| 2026-05-06 04:59 | 28.79425 | 129.14397 | 35036 ft | 489 kts | 46° |
| 2026-05-06 05:00 | 28.84122 | 129.20004 | 35033 ft | 490 kts | 46° |
| 2026-05-06 05:00 | 28.88803 | 129.25599 | 35034 ft | 491 kts | 46° |
| 2026-05-06 05:01 | 28.93516 | 129.31242 | 35034 ft | 492 kts | 47° |
| 2026-05-06 05:01 | 28.98243 | 129.36909 | 35036 ft | 493 kts | 47° |
| 2026-05-06 05:02 | 29.02990 | 129.42558 | 35031 ft | 493 kts | 46° |